createdAt,value
2019-03-17T00:02:11.636Z,9.49
2019-03-17T00:04:45.180Z,9.55
2019-03-17T00:07:18.601Z,9.56
2019-03-17T00:09:51.801Z,9.45
2019-03-17T00:12:24.862Z,9.46
2019-03-17T00:15:05.325Z,9.41
2019-03-17T00:17:33.827Z,9.36
2019-03-17T00:20:06.683Z,9.45
2019-03-17T00:22:40.071Z,9.53
2019-03-17T00:25:13.084Z,9.51
2019-03-17T00:27:46.791Z,9.52
2019-03-17T00:30:20.662Z,9.51
2019-03-17T00:32:53.568Z,9.50
2019-03-17T00:35:27.338Z,9.35
2019-03-17T00:38:01.189Z,9.32
2019-03-17T00:40:34.169Z,9.45
2019-03-17T00:43:07.560Z,9.45
2019-03-17T00:45:41.113Z,9.46
2019-03-17T00:48:14.490Z,9.49
2019-03-17T00:50:48.989Z,9.44
2019-03-17T00:53:22.587Z,9.46
2019-03-17T00:55:55.854Z,9.32
2019-03-17T00:58:30.559Z,9.31
2019-03-17T01:01:04.156Z,9.36
2019-03-17T01:03:37.125Z,9.31
2019-03-17T01:06:10.322Z,9.34
2019-03-17T01:08:43.666Z,9.36
2019-03-17T01:11:15.956Z,9.38
2019-03-17T01:13:49.700Z,9.33
2019-03-17T01:16:22.638Z,9.26
2019-03-17T01:18:55.643Z,9.30
2019-03-17T01:21:28.784Z,9.35
2019-03-17T01:24:01.028Z,9.38
2019-03-17T01:26:33.850Z,9.43
2019-03-17T01:29:06.949Z,9.30
2019-03-17T01:31:40.043Z,9.44
2019-03-17T01:34:13.475Z,9.37
2019-03-17T01:36:46.959Z,9.49
2019-03-17T01:39:20.480Z,9.42
2019-03-17T01:41:54.372Z,9.55
2019-03-17T01:44:27.475Z,9.56
2019-03-17T01:46:59.711Z,9.49
2019-03-17T01:49:33.347Z,9.51
2019-03-17T01:52:06.755Z,9.34
2019-03-17T01:54:41.596Z,9.42
2019-03-17T01:57:14.137Z,9.37
2019-03-17T01:59:47.532Z,9.34
2019-03-17T02:02:20.658Z,9.19
2019-03-17T02:04:54.131Z,9.08
2019-03-17T02:07:27.443Z,9.21
2019-03-17T02:10:00.984Z,9.13
2019-03-17T02:12:34.413Z,9.12
2019-03-17T02:15:08.222Z,9.09
2019-03-17T02:17:42.076Z,9.12
2019-03-17T02:20:15.717Z,9.25
2019-03-17T02:22:49.144Z,9.05
2019-03-17T02:25:23.128Z,9.16
2019-03-17T02:27:55.787Z,9.20
2019-03-17T02:30:28.793Z,9.22
2019-03-17T02:33:02.547Z,9.00
2019-03-17T02:35:39.460Z,9.05
2019-03-17T02:38:12.178Z,9.18
2019-03-17T02:40:45.529Z,9.33
2019-03-17T02:43:19.008Z,9.30
2019-03-17T02:45:52.358Z,9.28
2019-03-17T02:48:25.642Z,9.28
2019-03-17T02:50:59.001Z,9.29
2019-03-17T02:53:31.948Z,9.29
2019-03-17T02:56:05.320Z,9.30
2019-03-17T02:58:38.430Z,9.36
2019-03-17T03:01:11.923Z,9.27
2019-03-17T03:03:45.336Z,9.31
2019-03-17T03:06:18.077Z,9.27
2019-03-17T03:08:51.931Z,9.25
2019-03-17T03:11:25.412Z,9.23
2019-03-17T03:13:58.785Z,9.25
2019-03-17T03:16:31.919Z,9.24
2019-03-17T03:19:04.999Z,9.29
2019-03-17T03:21:38.460Z,9.17
2019-03-17T03:24:12.296Z,9.27
2019-03-17T03:26:46.118Z,9.26
2019-03-17T03:29:19.625Z,9.25
2019-03-17T03:31:53.463Z,9.21
2019-03-17T03:34:26.501Z,9.30
2019-03-17T03:37:00.107Z,9.30
2019-03-17T03:39:33.192Z,9.22
2019-03-17T03:42:07.682Z,9.30
2019-03-17T03:44:41.820Z,9.30
2019-03-17T03:47:14.836Z,9.24
2019-03-17T03:49:48.622Z,9.15
2019-03-17T03:52:22.154Z,9.17
2019-03-17T03:54:55.599Z,9.18
2019-03-17T03:57:28.934Z,9.11
2019-03-17T04:00:02.055Z,9.18
2019-03-17T04:02:35.568Z,9.19
2019-03-17T04:05:08.821Z,9.09
2019-03-17T04:07:42.613Z,9.10
2019-03-17T04:10:16.231Z,9.09
2019-03-17T04:12:49.250Z,9.12
2019-03-17T04:15:22.276Z,9.16
2019-03-17T04:17:54.866Z,9.15
2019-03-17T04:20:28.228Z,9.18
2019-03-17T04:23:01.277Z,9.20
2019-03-17T04:25:35.266Z,9.16
2019-03-17T04:28:08.837Z,9.28
2019-03-17T04:30:42.289Z,9.23
2019-03-17T04:33:15.576Z,9.28
2019-03-17T04:35:48.992Z,9.15
2019-03-17T04:38:21.932Z,9.17
2019-03-17T04:40:55.536Z,9.18
2019-03-17T04:43:29.961Z,9.01
2019-03-17T04:46:03.641Z,8.91
2019-03-17T04:48:36.731Z,8.87
2019-03-17T04:51:10.262Z,8.89
2019-03-17T04:53:43.359Z,8.76
2019-03-17T17:55:23.212Z,4.92
2019-03-17T17:57:55.998Z,4.73
2019-03-17T18:00:30.138Z,4.61
2019-03-17T18:03:03.224Z,4.45
2019-03-17T18:05:36.487Z,4.37
2019-03-17T18:08:09.907Z,4.37
2019-03-17T18:10:43.023Z,4.27
2019-03-17T18:13:16.968Z,4.24
2019-03-17T18:15:50.416Z,4.13
2019-03-17T18:18:22.735Z,4.26
2019-03-17T18:20:59.204Z,4.18
2019-03-17T18:23:31.814Z,4.15
2019-03-17T18:26:05.682Z,4.19
2019-03-17T18:28:39.082Z,4.26
2019-03-17T18:31:12.630Z,4.31
2019-03-17T18:33:46.580Z,4.36
2019-03-17T18:36:20.006Z,4.37
2019-03-17T18:38:53.240Z,4.41
2019-03-17T18:41:26.326Z,4.54
2019-03-17T18:43:59.443Z,4.56
2019-03-17T18:46:32.693Z,4.56
2019-03-17T18:49:06.124Z,4.56
2019-03-17T18:51:39.840Z,4.58
2019-03-17T18:54:13.096Z,4.63
2019-03-17T18:56:46.278Z,4.61
2019-03-17T18:59:20.147Z,4.57
2019-03-17T19:01:52.971Z,4.41
2019-03-17T19:04:26.817Z,4.48
2019-03-17T19:07:00.210Z,4.48
2019-03-17T19:09:33.420Z,4.57
2019-03-17T19:12:06.833Z,4.57
2019-03-17T19:14:40.525Z,4.64
2019-03-17T19:17:14.311Z,4.63
2019-03-17T19:19:47.819Z,4.56
2019-03-17T19:22:21.806Z,4.53
2019-03-17T19:24:54.936Z,4.53
2019-03-17T19:27:28.371Z,4.59
2019-03-17T19:30:01.272Z,4.65
2019-03-17T19:32:34.015Z,4.63
2019-03-17T19:35:07.666Z,4.54
2019-03-17T19:37:40.682Z,4.57
2019-03-17T19:40:14.338Z,4.44
2019-03-17T19:42:58.055Z,4.35
2019-03-17T19:45:22.722Z,4.34
2019-03-17T19:47:55.568Z,4.31
2019-03-17T19:50:29.204Z,4.28
2019-03-17T19:53:02.823Z,4.14
2019-03-17T19:55:35.982Z,4.17
2019-03-17T19:58:09.931Z,4.17
2019-03-17T20:00:43.924Z,4.23
2019-03-17T20:03:17.467Z,4.14
2019-03-17T20:06:01.877Z,4.08
2019-03-17T20:08:25.823Z,4.12
2019-03-17T20:10:58.906Z,4.09
2019-03-17T20:13:32.598Z,3.94
2019-03-17T20:16:05.777Z,3.91
2019-03-17T20:18:41.355Z,3.85
2019-03-17T20:21:14.488Z,3.99
2019-03-17T20:23:48.155Z,3.85
2019-03-17T20:26:22.192Z,3.96
2019-03-17T20:28:55.967Z,3.93
2019-03-17T20:31:29.193Z,3.89
2019-03-17T20:34:02.991Z,3.96
2019-03-17T20:36:36.085Z,3.96
2019-03-17T20:39:09.137Z,3.83
2019-03-17T20:41:42.744Z,3.77
2019-03-17T20:44:16.336Z,3.81
2019-03-17T20:46:50.307Z,3.72
2019-03-17T20:49:23.873Z,3.60
2019-03-17T20:51:57.717Z,3.81
2019-03-17T20:54:30.850Z,3.92
2019-03-17T20:57:04.346Z,3.89
2019-03-17T20:59:37.445Z,3.88
2019-03-17T21:02:10.773Z,3.76
2019-03-17T21:04:44.353Z,3.83
2019-03-17T21:07:16.781Z,3.83
2019-03-17T21:09:50.036Z,3.88
2019-03-17T21:12:23.810Z,3.85
2019-03-17T21:14:57.673Z,3.74
2019-03-17T21:17:31.177Z,3.73
2019-03-17T21:20:04.930Z,3.62
2019-03-17T21:22:38.416Z,3.66
2019-03-17T21:25:10.796Z,3.63
2019-03-17T21:27:44.305Z,3.82
2019-03-17T21:30:18.613Z,3.80
2019-03-17T21:32:52.557Z,3.84
2019-03-17T21:35:26.098Z,3.70
2019-03-17T21:37:59.437Z,3.74
2019-03-17T21:40:32.598Z,3.88
2019-03-17T21:43:05.736Z,3.80
2019-03-17T21:45:38.881Z,3.79
2019-03-17T21:48:12.413Z,3.70
2019-03-17T21:50:45.297Z,3.71
2019-03-17T21:53:18.497Z,3.71
2019-03-17T21:55:54.059Z,3.47
2019-03-17T21:58:27.770Z,3.47
2019-03-17T22:01:01.730Z,3.46
2019-03-17T22:03:35.522Z,3.35
2019-03-17T22:06:08.217Z,3.26
2019-03-17T22:08:40.923Z,3.29
2019-03-17T22:11:14.805Z,3.20
2019-03-17T22:13:48.425Z,3.30
2019-03-17T22:16:21.197Z,3.25
2019-03-17T22:18:53.963Z,3.19
2019-03-17T22:21:27.281Z,3.09
2019-03-17T22:24:01.322Z,2.95
2019-03-17T22:26:34.511Z,2.97
2019-03-17T22:29:07.548Z,2.93
2019-03-17T22:31:41.497Z,2.83
2019-03-17T22:34:14.944Z,2.76
2019-03-17T22:36:49.003Z,2.80
2019-03-17T22:39:22.564Z,2.73
2019-03-17T22:41:56.053Z,2.73
2019-03-17T22:44:29.878Z,2.67
2019-03-17T22:47:03.061Z,2.55
2019-03-17T22:49:36.616Z,2.64
2019-03-17T22:52:09.674Z,2.71
2019-03-17T22:54:43.472Z,2.62
2019-03-17T22:57:16.553Z,2.58
2019-03-17T22:59:50.302Z,2.60
2019-03-17T23:02:23.130Z,2.65
2019-03-17T23:04:56.141Z,2.63
2019-03-17T23:07:29.113Z,2.56
2019-03-17T23:10:03.289Z,2.60
2019-03-17T23:12:36.396Z,2.52
2019-03-17T23:15:10.021Z,2.51
2019-03-17T23:17:42.668Z,2.59
2019-03-17T23:20:16.102Z,2.51
2019-03-17T23:22:49.972Z,2.40
2019-03-17T23:25:23.596Z,2.43
2019-03-17T23:27:57.431Z,2.47
2019-03-17T23:30:31.214Z,2.48
2019-03-17T23:33:04.385Z,2.37
2019-03-17T23:35:37.713Z,2.28
2019-03-17T23:38:10.692Z,2.26
2019-03-17T23:40:44.200Z,2.30
2019-03-17T23:43:18.653Z,2.22
2019-03-17T23:45:52.115Z,2.34
2019-03-17T23:48:24.761Z,2.29
2019-03-17T23:50:58.090Z,2.31
2019-03-17T23:53:31.621Z,2.26
2019-03-17T23:56:05.181Z,2.15
2019-03-17T23:58:39.036Z,2.14
